F/V Barracuda II — FMIF — position and weather

sailwx.info

Track history (hours):
 
Tides and Currents Weather Stations Pressure Air Temp Water Temp Dewpoint Dewpoint Depression Visibility Wind Speed Wind Dir Waves Ship Positions

F/V Barracuda II

Last reported at 2014-Dec-18 17:33 UTC. Time now 2014-Dec-19 03:56 UTC.
Position N 43°32' E 004°08'.

Length 23 m.

Type: Fishing. MMSI: 228236800.

Date/timePositionNaut miles runAvg speedWind from/ knotsBaromVisibWave heightAir tempDewpointWater temp
2014-Dec-18 17:33N 43°32' E 004°08'0 0.0
2014-Dec-18 16:29N 43°32' E 004°08'9 3.8
2014-Dec-18 14:04N 43°26' E 003°59'1 0.7
2014-Dec-18 12:25N 43°26' E 003°58'3 2.9
2014-Dec-18 11:25N 43°25' E 004°01'4 3.4
2014-Dec-18 10:11N 43°27' E 003°57'2 2.8
2014-Dec-18 09:19N 43°26' E 003°53'3 3.9
2014-Dec-18 08:29N 43°24' E 003°51'0 0.0
2014-Dec-18 07:14N 43°24' E 003°51'3 4.0
2014-Dec-18 06:30N 43°26' E 003°53'3 2.9
2014-Dec-18 05:30N 43°26' E 003°57'4 3.6
2014-Dec-18 04:30N 43°26' E 004°02'4 2.1
2014-Dec-18 02:30N 43°29' E 004°06'4 0.4
2014-Dec-17 17:05N 43°32' E 004°08'0 0.0
2014-Dec-17 16:14N 43°32' E 004°08'4 4.3
2014-Dec-17 15:16N 43°29' E 004°05'4 5.3
2014-Dec-17 14:29N 43°26' E 004°02'6 4.0
2014-Dec-17 13:03N 43°21' E 004°07'1 1.7
2014-Dec-17 12:27N 43°21' E 004°08'4 3.5
2014-Dec-17 11:21N 43°20' E 004°13'3 2.9
2014-Dec-17 10:18N 43°20' E 004°17'7 3.9
2014-Dec-17 08:33N 43°17' E 004°26'4 1.6
2014-Dec-17 06:09N 43°18' E 004°21'17 1.3
2014-Dec-16 17:09N 43°32' E 004°08'0 0.0
2014-Dec-16 16:09N 43°32' E 004°08'4 5.1
2014-Dec-16 15:27N 43°30' E 004°05'6 6.3
2014-Dec-16 14:31N 43°24' E 004°02'3 2.9
2014-Dec-16 13:30N 43°22' E 004°05'4 3.9
2014-Dec-16 12:31N 43°20' E 004°09'10 3.1
2014-Dec-16 09:20N 43°15' E 004°21'4 3.8
2014-Dec-16 08:24N 43°15' E 004°26'5 2.3
2014-Dec-16 06:06N 43°19' E 004°20'16 1.3
2014-Dec-15 17:10N 43°32' E 004°08'0 0.0
2014-Dec-15 15:22N 43°32' E 004°08'8 7.9
2014-Dec-15 14:23N 43°25' E 004°06'7 3.8
2014-Dec-15 12:33N 43°20' E 004°13'5 3.9
2014-Dec-15 11:20N 43°19' E 004°20'3 2.7
2014-Dec-15 10:12N 43°18' E 004°24'3 3.8
2014-Dec-15 09:23N 43°18' E 004°28'8 2.0
2014-Dec-15 05:23N 43°24' E 004°21'  
2014-Dec-12 16:20N 43°29' E 004°07'910.3
2014-Dec-12 15:29N 43°21' E 004°13'8 3.9
2014-Dec-12 13:26N 43°18' E 004°23'6 2.8
2014-Dec-12 11:10N 43°15' E 004°31'2 3.9
2014-Dec-12 10:34N 43°15' E 004°35'3 2.5
2014-Dec-12 09:33N 43°13' E 004°34'4 3.8
2014-Dec-12 08:33N 43°14' E 004°28'1 0.9
2014-Dec-12 07:34N 43°14' E 004°27'4 3.6
2014-Dec-12 06:34N 43°16' E 004°23'4 4.1
2014-Dec-12 05:34N 43°18' E 004°18'4 4.1
2014-Dec-12 04:34N 43°20' E 004°13'4 4.1
2014-Dec-12 03:33N 43°21' E 004°08'9 8.5
2014-Dec-12 02:30N 43°30' E 004°06'3 0.3
2014-Dec-11 17:31N 43°32' E 004°08'0 0.0
2014-Dec-11 16:33N 43°32' E 004°08'0 0.0
2014-Dec-11 15:29N 43°32' E 004°08'0 0.0
2014-Dec-11 14:32N 43°32' E 004°08'4 3.7
2014-Dec-11 13:24N 43°30' E 004°04'5 6.1
2014-Dec-11 12:33N 43°27' E 004°09'2 2.5
2014-Dec-11 11:33N 43°28' E 004°07'4 4.2
2014-Dec-11 10:33N 43°31' E 004°02'0 0.4
2014-Dec-11 09:33N 43°31' E 004°03'3 2.8
2014-Dec-11 08:31N 43°30' E 003°59'8 8.3
2014-Dec-11 07:29N 43°22' E 003°54'3 2.9
2014-Dec-11 06:33N 43°22' E 003°50'7 6.5
2014-Dec-11 05:30N 43°28' E 003°56'7 6.8
2014-Dec-11 04:30N 43°30' E 004°05'4 3.5
2014-Dec-11 03:25N 43°32' E 004°08'0 0.0
2014-Dec-10 18:20N 43°32' E 004°08'0 0.0
2014-Dec-10 09:33N 43°32' E 004°08'0 0.1
2014-Dec-10 08:32N 43°32' E 004°08'0 0.0
2014-Dec-09 10:31N 43°32' E 004°08'0 0.0
2014-Dec-09 09:33N 43°32' E 004°08'  
Track history (hours):
 
Tides and Currents Weather Stations Pressure Air Temp Water Temp Dewpoint Dewpoint Depression Visibility Wind Speed Wind Dir Waves Ship Positions

F/V Barracuda II

Last reported at 2014-Dec-18 17:33 UTC. Time now 2014-Dec-19 03:56 UTC.
Position N 43°32' E 004°08'.

Length 23 m.

Type: Fishing. MMSI: 228236800.

Date/timePositionNaut miles runAvg speedWind from/ knotsBaromVisibWave heightAir tempDewpointWater temp
2014-Dec-18 17:33N 43°32' E 004°08'0 0.0
2014-Dec-18 16:29N 43°32' E 004°08'9 3.8
2014-Dec-18 14:04N 43°26' E 003°59'1 0.7
2014-Dec-18 12:25N 43°26' E 003°58'3 2.9
2014-Dec-18 11:25N 43°25' E 004°01'4 3.4
2014-Dec-18 10:11N 43°27' E 003°57'2 2.8
2014-Dec-18 09:19N 43°26' E 003°53'3 3.9
2014-Dec-18 08:29N 43°24' E 003°51'0 0.0
2014-Dec-18 07:14N 43°24' E 003°51'3 4.0
2014-Dec-18 06:30N 43°26' E 003°53'3 2.9
2014-Dec-18 05:30N 43°26' E 003°57'4 3.6
2014-Dec-18 04:30N 43°26' E 004°02'4 2.1
2014-Dec-18 02:30N 43°29' E 004°06'4 0.4
2014-Dec-17 17:05N 43°32' E 004°08'0 0.0
2014-Dec-17 16:14N 43°32' E 004°08'4 4.3
2014-Dec-17 15:16N 43°29' E 004°05'4 5.3
2014-Dec-17 14:29N 43°26' E 004°02'6 4.0
2014-Dec-17 13:03N 43°21' E 004°07'1 1.7
2014-Dec-17 12:27N 43°21' E 004°08'4 3.5
2014-Dec-17 11:21N 43°20' E 004°13'3 2.9
2014-Dec-17 10:18N 43°20' E 004°17'7 3.9
2014-Dec-17 08:33N 43°17' E 004°26'4 1.6
2014-Dec-17 06:09N 43°18' E 004°21'17 1.3
2014-Dec-16 17:09N 43°32' E 004°08'0 0.0
2014-Dec-16 16:09N 43°32' E 004°08'4 5.1
2014-Dec-16 15:27N 43°30' E 004°05'6 6.3
2014-Dec-16 14:31N 43°24' E 004°02'3 2.9
2014-Dec-16 13:30N 43°22' E 004°05'4 3.9
2014-Dec-16 12:31N 43°20' E 004°09'10 3.1
2014-Dec-16 09:20N 43°15' E 004°21'4 3.8
2014-Dec-16 08:24N 43°15' E 004°26'5 2.3
2014-Dec-16 06:06N 43°19' E 004°20'16 1.3
2014-Dec-15 17:10N 43°32' E 004°08'0 0.0
2014-Dec-15 15:22N 43°32' E 004°08'8 7.9
2014-Dec-15 14:23N 43°25' E 004°06'7 3.8
2014-Dec-15 12:33N 43°20' E 004°13'5 3.9
2014-Dec-15 11:20N 43°19' E 004°20'3 2.7
2014-Dec-15 10:12N 43°18' E 004°24'3 3.8
2014-Dec-15 09:23N 43°18' E 004°28'8 2.0
2014-Dec-15 05:23N 43°24' E 004°21'  
2014-Dec-12 16:20N 43°29' E 004°07'910.3
2014-Dec-12 15:29N 43°21' E 004°13'8 3.9
2014-Dec-12 13:26N 43°18' E 004°23'6 2.8
2014-Dec-12 11:10N 43°15' E 004°31'2 3.9
2014-Dec-12 10:34N 43°15' E 004°35'3 2.5
2014-Dec-12 09:33N 43°13' E 004°34'4 3.8
2014-Dec-12 08:33N 43°14' E 004°28'1 0.9
2014-Dec-12 07:34N 43°14' E 004°27'4 3.6
2014-Dec-12 06:34N 43°16' E 004°23'4 4.1
2014-Dec-12 05:34N 43°18' E 004°18'4 4.1
2014-Dec-12 04:34N 43°20' E 004°13'4 4.1
2014-Dec-12 03:33N 43°21' E 004°08'9 8.5
2014-Dec-12 02:30N 43°30' E 004°06'3 0.3
2014-Dec-11 17:31N 43°32' E 004°08'0 0.0
2014-Dec-11 16:33N 43°32' E 004°08'0 0.0
2014-Dec-11 15:29N 43°32' E 004°08'0 0.0
2014-Dec-11 14:32N 43°32' E 004°08'4 3.7
2014-Dec-11 13:24N 43°30' E 004°04'5 6.1
2014-Dec-11 12:33N 43°27' E 004°09'2 2.5
2014-Dec-11 11:33N 43°28' E 004°07'4 4.2
2014-Dec-11 10:33N 43°31' E 004°02'0 0.4
2014-Dec-11 09:33N 43°31' E 004°03'3 2.8
2014-Dec-11 08:31N 43°30' E 003°59'8 8.3
2014-Dec-11 07:29N 43°22' E 003°54'3 2.9
2014-Dec-11 06:33N 43°22' E 003°50'7 6.5
2014-Dec-11 05:30N 43°28' E 003°56'7 6.8
2014-Dec-11 04:30N 43°30' E 004°05'4 3.5
2014-Dec-11 03:25N 43°32' E 004°08'0 0.0
2014-Dec-10 18:20N 43°32' E 004°08'0 0.0
2014-Dec-10 09:33N 43°32' E 004°08'0 0.1
2014-Dec-10 08:32N 43°32' E 004°08'0 0.0
2014-Dec-09 10:31N 43°32' E 004°08'0 0.0
2014-Dec-09 09:33N 43°32' E 004°08'  

Dump ship's entire track history